Time;durP1;ratioP1;P1;durP2;ratioP2;P2;SDS_P1;SDS_P2;PMS_P1;PMS_P2;Temp;Humidity;BMP_temperature;BMP_pressure;BME280_temperature;BME280_humidity;BME280_pressure;Samples;Min_cycle;Max_cycle;Signal;HPM_P1;HPM_P2
2022/12/02 00:00:49;;;;;;;41.95;26.85;;;;;;;;;;5096894;28;20193;-61
2022/12/02 00:03:18;;;;;;;41.40;26.40;;;;;;;;;;5096997;28;20725;-61
2022/12/02 00:05:48;;;;;;;45.72;25.80;;;;;;;;;;5097043;28;20197;-61
2022/12/02 00:08:19;;;;;;;45.88;27.98;;;;;;;;;;5096967;28;20192;-61
2022/12/02 00:10:46;;;;;;;39.63;25.65;;;;;;;;;;5096916;28;20194;-61
2022/12/02 00:13:18;;;;;;;45.95;27.85;;;;;;;;;;5096869;28;20693;-61
2022/12/02 00:15:46;;;;;;;46.53;27.90;;;;;;;;;;5097047;28;20243;-61
2022/12/02 00:18:15;;;;;;;41.42;27.30;;;;;;;;;;5096396;28;20229;-61
2022/12/02 00:20:42;;;;;;;45.53;27.60;;;;;;;;;;5096557;28;20196;-61
2022/12/02 00:23:10;;;;;;;43.17;26.67;;;;;;;;;;5096472;28;20293;-62
2022/12/02 00:25:38;;;;;;;44.90;26.25;;;;;;;;;;5096113;28;20186;-61
2022/12/02 00:28:06;;;;;;;51.53;27.63;;;;;;;;;;5095652;28;20197;-61
2022/12/02 00:30:33;;;;;;;43.35;26.55;;;;;;;;;;5096506;28;20235;-61
2022/12/02 00:33:00;;;;;;;49.10;29.60;;;;;;;;;;5095346;28;20536;-61
2022/12/02 00:35:27;;;;;;;45.83;27.83;;;;;;;;;;5096079;28;20190;-61
2022/12/02 00:37:54;;;;;;;45.17;27.33;;;;;;;;;;5095319;28;20193;-61
2022/12/02 00:40:21;;;;;;;47.00;28.63;;;;;;;;;;5095951;28;20190;-61
2022/12/02 00:42:50;;;;;;;44.30;28.20;;;;;;;;;;5096190;28;20190;-61
2022/12/02 00:48:02;;;;;;;48.95;28.33;;;;;;;;;;5095512;28;20271;-61
2022/12/02 00:50:29;;;;;;;44.67;27.67;;;;;;;;;;5095522;28;20189;-61
2022/12/02 00:52:56;;;;;;;45.58;28.83;;;;;;;;;;5095661;28;20189;-61
2022/12/02 00:55:24;;;;;;;49.42;28.10;;;;;;;;;;5095982;28;20193;-62
2022/12/02 00:57:52;;;;;;;44.17;26.77;;;;;;;;;;5095901;28;20279;-61
2022/12/02 01:00:19;;;;;;;44.72;25.50;;;;;;;;;;5095323;28;20430;-61
2022/12/02 01:02:47;;;;;;;51.85;28.75;;;;;;;;;;5094891;28;20190;-62
2022/12/02 01:05:14;;;;;;;47.78;27.02;;;;;;;;;;5095432;28;20206;-61
2022/12/02 01:07:41;;;;;;;43.33;26.30;;;;;;;;;;5095508;28;20197;-61
2022/12/02 01:10:09;;;;;;;47.33;27.33;;;;;;;;;;5095229;28;20637;-61
2022/12/02 01:12:36;;;;;;;42.55;27.58;;;;;;;;;;5094813;28;20199;-61
2022/12/02 01:15:05;;;;;;;42.72;26.95;;;;;;;;;;5094632;28;20258;-64
2022/12/02 01:17:33;;;;;;;44.55;25.65;;;;;;;;;;5094867;28;20327;-61
2022/12/02 01:20:00;;;;;;;47.25;27.10;;;;;;;;;;5094910;28;20189;-61
2022/12/02 01:22:27;;;;;;;43.20;27.38;;;;;;;;;;5094670;28;20190;-61
2022/12/02 01:24:54;;;;;;;43.75;27.20;;;;;;;;;;5094767;28;20190;-61
2022/12/02 01:27:23;;;;;;;47.88;27.90;;;;;;;;;;5094992;28;20186;-61
2022/12/02 01:29:50;;;;;;;44.45;25.67;;;;;;;;;;5094624;28;20196;-61
2022/12/02 01:32:20;;;;;;;46.15;25.70;;;;;;;;;;5094781;28;20191;-61
2022/12/02 01:34:47;;;;;;;48.38;29.05;;;;;;;;;;5095309;28;20221;-60
2022/12/02 01:37:14;;;;;;;45.45;27.50;;;;;;;;;;5094666;28;20187;-61
2022/12/02 01:39:41;;;;;;;44.95;26.20;;;;;;;;;;5094950;28;20192;-61
2022/12/02 01:42:08;;;;;;;46.25;27.48;;;;;;;;;;5094488;28;20629;-61
2022/12/02 01:44:36;;;;;;;41.03;26.58;;;;;;;;;;5094538;28;20218;-61
2022/12/02 01:47:03;;;;;;;45.60;28.10;;;;;;;;;;5095055;28;20218;-61
2022/12/02 01:49:32;;;;;;;45.55;27.10;;;;;;;;;;5094724;28;20277;-61
2022/12/02 01:51:59;;;;;;;41.78;26.90;;;;;;;;;;5094752;28;20247;-61
2022/12/02 01:54:26;;;;;;;41.83;26.27;;;;;;;;;;5094949;28;20243;-60
2022/12/02 01:56:53;;;;;;;42.75;26.73;;;;;;;;;;5094604;28;20617;-61
2022/12/02 01:59:22;;;;;;;44.95;26.25;;;;;;;;;;5094813;28;20193;-61
2022/12/02 02:01:50;;;;;;;42.53;25.63;;;;;;;;;;5094631;28;20282;-61
2022/12/02 02:04:17;;;;;;;44.05;26.65;;;;;;;;;;5093807;28;20626;-60
2022/12/02 02:06:47;;;;;;;41.92;26.17;;;;;;;;;;5093977;28;20187;-61
2022/12/02 02:09:14;;;;;;;42.40;24.35;;;;;;;;;;5094061;28;20195;-60
2022/12/02 02:11:42;;;;;;;44.10;26.35;;;;;;;;;;5093991;28;20548;-61
2022/12/02 02:14:11;;;;;;;41.05;26.35;;;;;;;;;;5094165;28;20681;-60
2022/12/02 02:16:38;;;;;;;43.75;26.73;;;;;;;;;;5094361;28;20197;-60
2022/12/02 02:19:06;;;;;;;44.72;27.60;;;;;;;;;;5094234;28;20190;-60
2022/12/02 02:21:35;;;;;;;43.85;27.02;;;;;;;;;;5093837;28;20190;-60
2022/12/02 02:24:03;;;;;;;44.90;27.13;;;;;;;;;;5093417;28;20198;-60
2022/12/02 02:26:30;;;;;;;44.22;26.52;;;;;;;;;;5093337;28;20186;-60
2022/12/02 02:28:57;;;;;;;41.65;25.63;;;;;;;;;;5093982;28;20218;-60
2022/12/02 02:31:24;;;;;;;40.65;24.23;;;;;;;;;;5093755;28;20202;-60
2022/12/02 02:33:51;;;;;;;44.22;27.83;;;;;;;;;;5093526;28;20570;-61
2022/12/02 02:36:18;;;;;;;41.85;25.48;;;;;;;;;;5093746;28;20221;-60
2022/12/02 02:38:48;;;;;;;41.40;26.83;;;;;;;;;;5093533;28;20614;-60
2022/12/02 02:41:16;;;;;;;46.05;27.83;;;;;;;;;;5093392;28;20222;-60
2022/12/02 02:43:43;;;;;;;44.40;27.02;;;;;;;;;;5094262;28;20198;-61
2022/12/02 02:46:11;;;;;;;42.13;26.48;;;;;;;;;;5093745;28;20197;-60
2022/12/02 02:48:39;;;;;;;40.88;25.15;;;;;;;;;;5093522;28;20250;-61
2022/12/02 02:51:06;;;;;;;41.25;25.05;;;;;;;;;;5093813;28;20641;-61
2022/12/02 02:53:33;;;;;;;36.33;24.17;;;;;;;;;;5094357;28;20285;-61
2022/12/02 02:56:01;;;;;;;36.17;22.80;;;;;;;;;;5097158;28;20190;-61
2022/12/02 02:58:29;;;;;;;39.47;24.70;;;;;;;;;;5098075;28;20274;-61
2022/12/02 03:00:59;;;;;;;41.15;25.50;;;;;;;;;;5097825;28;20193;-61
2022/12/02 03:03:27;;;;;;;39.95;24.90;;;;;;;;;;5097778;28;20185;-61
2022/12/02 03:05:55;;;;;;;36.97;23.08;;;;;;;;;;5097778;28;20288;-61
2022/12/02 03:08:23;;;;;;;36.08;21.88;;;;;;;;;;5098440;28;20229;-61
2022/12/02 03:10:51;;;;;;;39.08;24.40;;;;;;;;;;5097882;28;20194;-61
2022/12/02 03:13:18;;;;;;;41.17;23.23;;;;;;;;;;5097832;28;20190;-61
2022/12/02 03:15:47;;;;;;;36.90;24.63;;;;;;;;;;5097525;28;20248;-61
2022/12/02 03:18:14;;;;;;;38.75;22.67;;;;;;;;;;5097539;28;20187;-61
2022/12/02 03:20:42;;;;;;;35.20;22.30;;;;;;;;;;5097683;28;20195;-61
2022/12/02 03:23:09;;;;;;;35.45;24.25;;;;;;;;;;5097722;28;20192;-61
2022/12/02 03:25:36;;;;;;;38.17;21.05;;;;;;;;;;5097386;28;20198;-61
2022/12/02 03:28:04;;;;;;;33.35;22.15;;;;;;;;;;5097827;28;20191;-61
2022/12/02 03:30:31;;;;;;;29.70;19.92;;;;;;;;;;5097549;28;20229;-61
2022/12/02 03:32:59;;;;;;;27.92;19.88;;;;;;;;;;5097093;28;20195;-61
2022/12/02 03:35:27;;;;;;;34.15;23.15;;;;;;;;;;5097336;28;20218;-61
2022/12/02 03:37:54;;;;;;;35.47;21.42;;;;;;;;;;5097348;28;20195;-61
2022/12/02 03:40:22;;;;;;;31.98;20.33;;;;;;;;;;5097687;28;20534;-61
2022/12/02 03:42:49;;;;;;;30.77;19.92;;;;;;;;;;5097514;28;20201;-61
2022/12/02 03:45:16;;;;;;;28.52;19.48;;;;;;;;;;5096362;28;20190;-61
2022/12/02 03:47:44;;;;;;;33.90;20.80;;;;;;;;;;5096587;28;20238;-61
2022/12/02 03:50:13;;;;;;;28.70;19.05;;;;;;;;;;5097470;28;20258;-61
2022/12/02 03:52:40;;;;;;;31.40;19.25;;;;;;;;;;5097092;28;20698;-60
2022/12/02 03:55:08;;;;;;;35.25;20.70;;;;;;;;;;5096928;28;20215;-60
2022/12/02 03:57:35;;;;;;;32.00;19.63;;;;;;;;;;5097178;28;20285;-61
2022/12/02 04:00:04;;;;;;;28.45;20.17;;;;;;;;;;5095874;28;20190;-60
2022/12/02 04:02:31;;;;;;;27.17;18.98;;;;;;;;;;5096413;28;20558;-60
2022/12/02 04:04:59;;;;;;;33.47;20.20;;;;;;;;;;5096564;28;20227;-61
2022/12/02 04:07:27;;;;;;;27.40;20.10;;;;;;;;;;5096631;28;20245;-60
2022/12/02 04:09:55;;;;;;;28.40;18.67;;;;;;;;;;5097075;28;20625;-61
2022/12/02 04:12:22;;;;;;;27.80;19.05;;;;;;;;;;5095807;28;20607;-60
2022/12/02 04:14:49;;;;;;;25.67;18.30;;;;;;;;;;5096251;28;20210;-61
2022/12/02 04:17:16;;;;;;;28.35;19.02;;;;;;;;;;5096161;28;20209;-61
2022/12/02 04:19:44;;;;;;;26.20;17.92;;;;;;;;;;5095780;28;20205;-61
2022/12/02 04:22:11;;;;;;;25.13;18.13;;;;;;;;;;5096133;28;20194;-60
2022/12/02 04:24:40;;;;;;;25.50;18.42;;;;;;;;;;5096006;28;20205;-60
2022/12/02 04:27:07;;;;;;;24.70;18.17;;;;;;;;;;5095505;28;20186;-60
2022/12/02 04:29:34;;;;;;;25.13;17.60;;;;;;;;;;5095949;28;20190;-60
2022/12/02 04:32:01;;;;;;;27.92;19.27;;;;;;;;;;5095952;28;20239;-61
2022/12/02 04:34:28;;;;;;;26.13;17.70;;;;;;;;;;5095788;28;20668;-60
2022/12/02 04:36:56;;;;;;;27.45;17.73;;;;;;;;;;5095679;28;20189;-60
2022/12/02 04:39:23;;;;;;;28.95;19.90;;;;;;;;;;5095604;28;20289;-61
2022/12/02 04:41:52;;;;;;;26.60;18.33;;;;;;;;;;5096070;28;20194;-60
2022/12/02 04:44:19;;;;;;;28.20;17.65;;;;;;;;;;5096182;28;20199;-60
2022/12/02 04:46:46;;;;;;;26.92;18.70;;;;;;;;;;5095699;28;20218;-60
2022/12/02 04:49:13;;;;;;;28.33;18.38;;;;;;;;;;5094927;28;20232;-60
2022/12/02 04:51:40;;;;;;;28.65;19.08;;;;;;;;;;5095372;28;20618;-60
2022/12/02 04:54:07;;;;;;;25.50;18.83;;;;;;;;;;5094619;28;20193;-60
2022/12/02 04:56:34;;;;;;;25.05;18.63;;;;;;;;;;5096074;28;20204;-60
2022/12/02 04:59:03;;;;;;;22.92;16.33;;;;;;;;;;5095834;28;20200;-61
2022/12/02 05:01:30;;;;;;;23.38;16.98;;;;;;;;;;5095007;28;20198;-60
2022/12/02 05:03:57;;;;;;;23.77;16.95;;;;;;;;;;5095749;28;20191;-62
2022/12/02 05:06:24;;;;;;;27.63;16.88;;;;;;;;;;5095616;28;20198;-61
2022/12/02 05:08:51;;;;;;;25.88;17.63;;;;;;;;;;5095408;28;20599;-61
2022/12/02 05:11:18;;;;;;;28.90;18.73;;;;;;;;;;5095784;28;20189;-61
2022/12/02 05:13:45;;;;;;;24.45;17.10;;;;;;;;;;5095682;28;20209;-61
2022/12/02 05:16:13;;;;;;;24.40;16.98;;;;;;;;;;5094946;28;20230;-61
2022/12/02 05:18:41;;;;;;;24.73;16.52;;;;;;;;;;5094526;28;20250;-61
2022/12/02 05:21:08;;;;;;;25.10;16.85;;;;;;;;;;5094895;28;20189;-62
2022/12/02 05:23:35;;;;;;;26.33;17.98;;;;;;;;;;5095344;28;20644;-61
2022/12/02 05:26:02;;;;;;;26.55;16.55;;;;;;;;;;5094869;28;20193;-62
2022/12/02 05:28:29;;;;;;;24.05;15.63;;;;;;;;;;5095015;28;20296;-61
2022/12/02 05:30:57;;;;;;;24.00;17.73;;;;;;;;;;5094865;28;20201;-61
2022/12/02 05:33:25;;;;;;;26.17;17.27;;;;;;;;;;5094805;28;20189;-61
2022/12/02 05:35:52;;;;;;;25.33;17.40;;;;;;;;;;5094178;28;20220;-62
2022/12/02 05:38:20;;;;;;;24.52;16.02;;;;;;;;;;5094941;28;20290;-61
2022/12/02 05:40:47;;;;;;;23.77;16.42;;;;;;;;;;5094563;28;20545;-61
2022/12/02 05:43:19;;;;;;;23.85;17.00;;;;;;;;;;5094239;28;20198;-61
2022/12/02 05:45:46;;;;;;;20.13;14.35;;;;;;;;;;5094825;28;20211;-61
2022/12/02 05:48:14;;;;;;;21.60;16.40;;;;;;;;;;5094750;28;20221;-62
2022/12/02 05:50:43;;;;;;;23.85;16.30;;;;;;;;;;5094233;28;20190;-61
2022/12/02 05:53:11;;;;;;;26.50;16.98;;;;;;;;;;5094664;28;20194;-62
2022/12/02 05:55:39;;;;;;;23.98;15.95;;;;;;;;;;5094037;28;20220;-61
2022/12/02 05:58:07;;;;;;;23.83;16.00;;;;;;;;;;5094620;28;20186;-61
2022/12/02 06:00:35;;;;;;;21.30;15.55;;;;;;;;;;5094733;28;20190;-61
2022/12/02 06:03:03;;;;;;;21.55;14.90;;;;;;;;;;5094019;28;20191;-61
2022/12/02 06:05:32;;;;;;;19.83;15.23;;;;;;;;;;5094533;28;20189;-63
2022/12/02 06:08:02;;;;;;;24.05;16.48;;;;;;;;;;5094015;28;20205;-61
2022/12/02 06:10:30;;;;;;;21.00;15.82;;;;;;;;;;5094777;28;20284;-61
2022/12/02 06:12:59;;;;;;;24.50;16.90;;;;;;;;;;5094570;28;20221;-61
2022/12/02 06:15:27;;;;;;;22.02;15.45;;;;;;;;;;5094104;28;20573;-61
2022/12/02 06:17:54;;;;;;;22.38;15.32;;;;;;;;;;5093816;28;20208;-61
2022/12/02 06:20:26;;;;;;;25.10;16.33;;;;;;;;;;5094099;28;20194;-61
2022/12/02 06:22:54;;;;;;;21.73;15.57;;;;;;;;;;5093482;28;20190;-61
2022/12/02 06:25:25;;;;;;;21.23;14.20;;;;;;;;;;5094111;28;20252;-62
2022/12/02 06:27:53;;;;;;;23.65;15.50;;;;;;;;;;5094512;28;20239;-61
2022/12/02 06:30:20;;;;;;;20.30;14.80;;;;;;;;;;5093711;28;20184;-61
2022/12/02 06:32:49;;;;;;;21.45;13.90;;;;;;;;;;5093422;28;20186;-61
2022/12/02 06:35:19;;;;;;;22.35;15.05;;;;;;;;;;5093997;28;20222;-62
2022/12/02 06:37:47;;;;;;;18.33;13.95;;;;;;;;;;5093564;28;20186;-61
2022/12/02 06:40:22;;;;;;;23.08;15.05;;;;;;;;;;5094356;28;20277;-62
2022/12/02 06:42:50;;;;;;;21.80;14.90;;;;;;;;;;5094006;28;20191;-61
2022/12/02 06:45:22;;;;;;;22.80;15.32;;;;;;;;;;5093371;28;20189;-61
2022/12/02 06:47:51;;;;;;;23.48;15.70;;;;;;;;;;5093921;28;20232;-61
2022/12/02 06:50:26;;;;;;;20.88;14.52;;;;;;;;;;5093882;28;20239;-62
2022/12/02 06:52:53;;;;;;;20.25;13.95;;;;;;;;;;5093611;28;20229;-61
2022/12/02 06:55:28;;;;;;;23.70;15.70;;;;;;;;;;5093668;28;20275;-61
2022/12/02 06:57:59;;;;;;;24.83;16.20;;;;;;;;;;5093843;28;20193;-61
2022/12/02 07:00:27;;;;;;;26.15;17.20;;;;;;;;;;5093817;28;20197;-61
2022/12/02 07:02:54;;;;;;;23.65;15.88;;;;;;;;;;5094008;28;20198;-61
2022/12/02 07:05:22;;;;;;;22.92;15.80;;;;;;;;;;5093167;28;20198;-61
2022/12/02 07:07:49;;;;;;;25.58;16.17;;;;;;;;;;5093054;28;20196;-61
2022/12/02 07:10:19;;;;;;;26.00;15.98;;;;;;;;;;5093189;28;20194;-61
2022/12/02 07:12:47;;;;;;;25.15;15.82;;;;;;;;;;5093871;28;20653;-61
2022/12/02 07:15:22;;;;;;;23.80;17.08;;;;;;;;;;5093090;28;20209;-61
2022/12/02 07:17:50;;;;;;;25.98;16.35;;;;;;;;;;5093133;28;20193;-61
2022/12/02 07:20:22;;;;;;;24.27;15.65;;;;;;;;;;5093210;28;20697;-61
2022/12/02 07:22:51;;;;;;;25.80;16.13;;;;;;;;;;5093480;28;20233;-61
2022/12/02 07:25:32;;;;;;;28.50;16.67;;;;;;;;;;5093648;28;20595;-61
2022/12/02 07:27:59;;;;;;;29.60;18.92;;;;;;;;;;5093374;28;20195;-61
2022/12/02 07:30:30;;;;;;;25.30;17.85;;;;;;;;;;5092930;28;20187;-61
2022/12/02 07:32:57;;;;;;;27.10;18.48;;;;;;;;;;5094008;28;20603;-61
2022/12/02 07:35:24;;;;;;;25.40;17.77;;;;;;;;;;5093379;28;20251;-61
2022/12/02 07:37:51;;;;;;;30.08;17.83;;;;;;;;;;5093471;28;20653;-61
2022/12/02 07:40:19;;;;;;;30.38;19.02;;;;;;;;;;5093452;28;20189;-61
2022/12/02 07:42:47;;;;;;;24.90;17.13;;;;;;;;;;5096326;28;20198;-61
2022/12/02 07:45:14;;;;;;;28.80;19.35;;;;;;;;;;5096519;28;20223;-61
2022/12/02 07:47:43;;;;;;;27.13;16.95;;;;;;;;;;5096755;28;20214;-62
2022/12/02 07:50:10;;;;;;;25.08;17.50;;;;;;;;;;5096584;28;20186;-61
2022/12/02 07:52:37;;;;;;;24.65;16.52;;;;;;;;;;5096924;28;20225;-61
2022/12/02 07:55:05;;;;;;;26.23;17.60;;;;;;;;;;5096334;28;20278;-61
2022/12/02 07:57:33;;;;;;;29.30;17.42;;;;;;;;;;5096642;28;20246;-61
2022/12/02 08:00:00;;;;;;;27.52;18.25;;;;;;;;;;5096421;28;20189;-61
2022/12/02 08:02:27;;;;;;;26.50;16.75;;;;;;;;;;5096358;28;20190;-61
2022/12/02 08:04:55;;;;;;;25.08;16.33;;;;;;;;;;5096178;28;20194;-61
2022/12/02 08:07:22;;;;;;;26.80;17.33;;;;;;;;;;5096388;28;20280;-61
2022/12/02 08:09:49;;;;;;;26.17;17.08;;;;;;;;;;5096016;28;20470;-59
2022/12/02 08:12:16;;;;;;;24.83;15.43;;;;;;;;;;5096157;28;20190;-58
2022/12/02 08:14:43;;;;;;;24.48;15.93;;;;;;;;;;5096273;28;20192;-59
2022/12/02 08:17:10;;;;;;;25.83;17.00;;;;;;;;;;5096014;28;20713;-58
2022/12/02 08:19:37;;;;;;;25.48;16.80;;;;;;;;;;5095873;28;20194;-59
2022/12/02 08:22:06;;;;;;;23.30;15.50;;;;;;;;;;5095492;28;20196;-57
2022/12/02 08:24:33;;;;;;;30.70;17.50;;;;;;;;;;5095933;28;20195;-59
2022/12/02 08:27:00;;;;;;;31.70;18.08;;;;;;;;;;5095736;28;20202;-57
2022/12/02 08:29:27;;;;;;;27.48;16.75;;;;;;;;;;5094913;28;20193;-58
2022/12/02 08:31:54;;;;;;;29.75;17.63;;;;;;;;;;5095466;28;20646;-57
2022/12/02 08:34:21;;;;;;;22.48;16.25;;;;;;;;;;5095449;28;20186;-56
2022/12/02 08:36:48;;;;;;;25.90;16.88;;;;;;;;;;5095506;28;20750;-58
2022/12/02 08:39:17;;;;;;;26.67;17.95;;;;;;;;;;5095490;28;20265;-58
2022/12/02 08:41:43;;;;;;;25.77;17.25;;;;;;;;;;5095125;28;20224;-58
2022/12/02 08:44:10;;;;;;;24.73;18.08;;;;;;;;;;5095441;28;20265;-58
2022/12/02 08:46:37;;;;;;;24.70;15.75;;;;;;;;;;5094905;28;20193;-58
2022/12/02 08:49:05;;;;;;;27.13;16.20;;;;;;;;;;5095144;28;20251;-58
2022/12/02 08:51:33;;;;;;;25.98;16.70;;;;;;;;;;5090763;28;20225;-57
2022/12/02 08:54:00;;;;;;;30.67;16.35;;;;;;;;;;5089039;28;20573;-60
2022/12/02 08:56:28;;;;;;;27.63;17.77;;;;;;;;;;5080044;28;20692;-59
2022/12/02 08:58:55;;;;;;;27.75;17.15;;;;;;;;;;5076876;28;20602;-60
2022/12/02 09:01:24;;;;;;;28.05;16.92;;;;;;;;;;5075081;28;20191;-63
2022/12/02 09:03:51;;;;;;;27.50;15.75;;;;;;;;;;5074937;28;20218;-63
2022/12/02 09:06:18;;;;;;;29.75;17.25;;;;;;;;;;5075370;28;20198;-62
2022/12/02 09:08:45;;;;;;;30.90;18.00;;;;;;;;;;5086394;28;20607;-62
2022/12/02 09:11:12;;;;;;;29.27;17.17;;;;;;;;;;5078032;28;20404;-55
2022/12/02 09:13:40;;;;;;;27.40;16.77;;;;;;;;;;5088343;28;20554;-62
2022/12/02 09:16:08;;;;;;;29.70;17.63;;;;;;;;;;5086566;28;20222;-61
2022/12/02 09:18:35;;;;;;;28.23;17.58;;;;;;;;;;5091110;28;20196;-60
2022/12/02 09:21:02;;;;;;;32.03;17.05;;;;;;;;;;5094672;28;20206;-60
2022/12/02 09:23:29;;;;;;;28.92;16.92;;;;;;;;;;5078622;28;20190;-60
2022/12/02 09:25:56;;;;;;;31.60;19.65;;;;;;;;;;5073937;28;20604;-60
2022/12/02 09:28:23;;;;;;;31.02;16.92;;;;;;;;;;5080324;28;20182;-60
2022/12/02 09:30:52;;;;;;;30.48;17.63;;;;;;;;;;5082076;28;20190;-59
2022/12/02 09:33:19;;;;;;;30.00;17.55;;;;;;;;;;5089390;28;20203;-60
2022/12/02 09:35:46;;;;;;;31.90;17.98;;;;;;;;;;5090573;28;20197;-60
2022/12/02 09:38:14;;;;;;;26.13;16.13;;;;;;;;;;5088669;28;20183;-60
2022/12/02 09:40:41;;;;;;;33.08;18.10;;;;;;;;;;5077556;28;20376;-60
2022/12/02 09:43:09;;;;;;;30.17;16.70;;;;;;;;;;5079187;28;20198;-60
2022/12/02 09:45:36;;;;;;;30.83;18.58;;;;;;;;;;5083897;28;20214;-60
2022/12/02 09:48:04;;;;;;;39.13;18.02;;;;;;;;;;5073415;28;20215;-61
2022/12/02 09:50:31;;;;;;;33.17;18.40;;;;;;;;;;5075601;28;20198;-61
2022/12/02 09:53:03;;;;;;;33.55;18.77;;;;;;;;;;5093771;28;20193;-60
2022/12/02 09:55:30;;;;;;;36.22;18.52;;;;;;;;;;5073919;28;20201;-59
2022/12/02 09:57:59;;;;;;;36.17;18.80;;;;;;;;;;5073678;28;20218;-59
2022/12/02 10:00:26;;;;;;;37.83;19.30;;;;;;;;;;5091779;28;20260;-60
2022/12/02 10:02:54;;;;;;;35.40;20.38;;;;;;;;;;5090949;28;20198;-55
2022/12/02 10:05:24;;;;;;;30.70;16.88;;;;;;;;;;5086300;28;20194;-59
2022/12/02 10:07:52;;;;;;;46.47;20.92;;;;;;;;;;5081260;28;20216;-62
2022/12/02 10:10:20;;;;;;;38.13;19.52;;;;;;;;;;5088290;28;20200;-60
2022/12/02 10:12:47;;;;;;;40.80;20.77;;;;;;;;;;5074577;28;20254;-60
2022/12/02 10:15:15;;;;;;;36.67;19.40;;;;;;;;;;5075194;28;20187;-63
2022/12/02 10:17:43;;;;;;;39.22;19.95;;;;;;;;;;5083042;28;20571;-63
2022/12/02 10:20:16;;;;;;;45.25;20.73;;;;;;;;;;5096430;28;20641;-63
2022/12/02 10:22:58;;;;;;;34.83;20.52;;;;;;;;;;5101279;28;20195;-57
2022/12/02 10:25:31;;;;;;;33.47;19.88;;;;;;;;;;5072635;28;20223;-58
2022/12/02 10:27:58;;;;;;;44.00;20.73;;;;;;;;;;5073962;28;20652;-57
2022/12/02 10:30:26;;;;;;;39.95;19.38;;;;;;;;;;5073763;28;20195;-57
2022/12/02 10:32:59;;;;;;;36.25;19.80;;;;;;;;;;5074017;28;20259;-57
2022/12/02 10:35:26;;;;;;;47.65;22.48;;;;;;;;;;5074226;28;20283;-56
2022/12/02 10:37:53;;;;;;;37.78;21.30;;;;;;;;;;5073574;28;20344;-56
2022/12/02 10:40:21;;;;;;;34.22;20.23;;;;;;;;;;5073504;28;20234;-57
2022/12/02 10:43:07;;;;;;;35.00;19.75;;;;;;;;;;5073519;28;20197;-58
2022/12/02 10:45:34;;;;;;;35.33;19.15;;;;;;;;;;5074216;28;20543;-57
2022/12/02 10:48:11;;;;;;;35.85;19.88;;;;;;;;;;5072925;28;20316;-56
2022/12/02 10:50:40;;;;;;;30.65;18.50;;;;;;;;;;5073523;28;20609;-57
2022/12/02 10:53:13;;;;;;;31.85;19.27;;;;;;;;;;5074095;28;20613;-57
2022/12/02 10:55:41;;;;;;;32.25;19.02;;;;;;;;;;5073429;28;20202;-55
2022/12/02 10:58:13;;;;;;;37.50;20.58;;;;;;;;;;5073125;28;20242;-54
2022/12/02 11:00:40;;;;;;;34.85;19.42;;;;;;;;;;5072986;28;20278;-58
2022/12/02 11:03:08;;;;;;;34.05;19.13;;;;;;;;;;5073271;28;20191;-57
2022/12/02 11:05:37;;;;;;;37.13;19.95;;;;;;;;;;5071317;28;20190;-63
2022/12/02 11:08:07;;;;;;;36.22;19.67;;;;;;;;;;5073926;28;20191;-60
2022/12/02 11:10:38;;;;;;;34.67;19.92;;;;;;;;;;5089266;28;20198;-59
2022/12/02 11:13:23;;;;;;;33.78;20.08;;;;;;;;;;5088436;28;20642;-60
2022/12/02 11:15:52;;;;;;;38.08;20.45;;;;;;;;;;5074012;28;20336;-61
2022/12/02 11:18:34;;;;;;;34.63;20.15;;;;;;;;;;5086746;28;20301;-61
2022/12/02 11:21:17;;;;;;;33.38;19.15;;;;;;;;;;5080140;28;20194;-57
2022/12/02 11:23:46;;;;;;;35.13;18.73;;;;;;;;;;5076836;28;20186;-63
2022/12/02 11:26:14;;;;;;;40.10;20.67;;;;;;;;;;5077138;28;20194;-59
2022/12/02 11:28:59;;;;;;;33.17;18.55;;;;;;;;;;5077187;28;20214;-60
2022/12/02 11:31:28;;;;;;;35.13;18.15;;;;;;;;;;5096163;28;20242;-60
2022/12/02 11:34:16;;;;;;;32.33;18.77;;;;;;;;;;5093674;28;20184;-60
2022/12/02 11:36:43;;;;;;;33.22;18.88;;;;;;;;;;5077555;28;20214;-60
2022/12/02 11:39:11;;;;;;;36.88;20.05;;;;;;;;;;5076209;28;20290;-63
2022/12/02 11:41:57;;;;;;;30.65;17.10;;;;;;;;;;5079317;28;20186;-59
2022/12/02 11:44:26;;;;;;;35.45;18.88;;;;;;;;;;5085844;28;20190;-59
2022/12/02 11:46:55;;;;;;;36.65;18.08;;;;;;;;;;5094525;28;20228;-58
2022/12/02 11:49:34;;;;;;;32.30;17.95;;;;;;;;;;5095735;28;20190;-58
2022/12/02 11:52:06;;;;;;;34.88;18.20;;;;;;;;;;5096513;28;20217;-58
2022/12/02 11:54:36;;;;;;;30.88;18.27;;;;;;;;;;5096340;28;20190;-58
2022/12/02 11:57:03;;;;;;;31.42;18.15;;;;;;;;;;5096680;28;20263;-59
2022/12/02 11:59:30;;;;;;;30.52;18.40;;;;;;;;;;5096319;28;20715;-59
2022/12/02 12:02:09;;;;;;;32.40;17.60;;;;;;;;;;5096523;28;20649;-59
2022/12/02 12:04:36;;;;;;;32.72;18.23;;;;;;;;;;5096241;28;20190;-59
2022/12/02 12:07:03;;;;;;;38.28;19.55;;;;;;;;;;5096177;28;20199;-58
2022/12/02 12:09:30;;;;;;;34.45;19.40;;;;;;;;;;5096088;28;20193;-59
2022/12/02 12:12:21;;;;;;;34.97;18.50;;;;;;;;;;5096080;28;20649;-57
2022/12/02 12:14:55;;;;;;;34.95;17.63;;;;;;;;;;5085808;28;20194;-59
2022/12/02 12:17:46;;;;;;;34.97;18.88;;;;;;;;;;5096046;28;20299;-58
2022/12/02 12:20:46;;;;;;;34.90;19.85;;;;;;;;;;5085535;28;20272;-59
2022/12/02 12:23:43;;;;;;;35.67;18.08;;;;;;;;;;5053713;28;20203;-58
2022/12/02 12:26:30;;;;;;;33.83;17.70;;;;;;;;;;4994147;28;20719;-58
2022/12/02 12:29:01;;;;;;;32.22;17.45;;;;;;;;;;5079805;28;20318;-59
2022/12/02 12:31:28;;;;;;;30.88;17.27;;;;;;;;;;5095573;28;20686;-58
2022/12/02 12:33:55;;;;;;;32.97;19.30;;;;;;;;;;5095651;28;20597;-59
2022/12/02 12:36:22;;;;;;;33.42;18.23;;;;;;;;;;5095288;28;20191;-58
2022/12/02 12:38:49;;;;;;;33.50;19.30;;;;;;;;;;5095916;28;20573;-58
2022/12/02 12:41:20;;;;;;;39.95;20.83;;;;;;;;;;5096244;28;20213;-59
2022/12/02 12:43:49;;;;;;;35.05;17.80;;;;;;;;;;5096054;28;20552;-59
2022/12/02 12:46:16;;;;;;;36.08;18.85;;;;;;;;;;5095578;28;20190;-59
2022/12/02 12:48:43;;;;;;;36.88;19.48;;;;;;;;;;5095599;28;20274;-59
2022/12/02 12:51:10;;;;;;;36.60;17.88;;;;;;;;;;5095306;28;20609;-59
2022/12/02 12:53:38;;;;;;;32.80;19.45;;;;;;;;;;5095918;28;20665;-59
2022/12/02 12:56:05;;;;;;;37.88;18.65;;;;;;;;;;5095253;28;20262;-59
2022/12/02 12:58:34;;;;;;;42.38;20.55;;;;;;;;;;5094990;28;20219;-60
2022/12/02 13:01:01;;;;;;;35.40;20.85;;;;;;;;;;5095532;28;20190;-58
2022/12/02 13:03:28;;;;;;;41.28;21.73;;;;;;;;;;5095155;28;20667;-59
2022/12/02 13:05:55;;;;;;;41.05;21.88;;;;;;;;;;5094702;28;20189;-60
2022/12/02 13:08:23;;;;;;;45.22;22.10;;;;;;;;;;5095236;28;20185;-60
2022/12/02 13:10:50;;;;;;;42.83;21.00;;;;;;;;;;5095046;28;20198;-60
2022/12/02 13:13:17;;;;;;;43.33;21.08;;;;;;;;;;5094892;28;20192;-60
2022/12/02 13:15:45;;;;;;;37.85;21.23;;;;;;;;;;5094734;28;20239;-59
2022/12/02 13:18:13;;;;;;;38.20;22.27;;;;;;;;;;5094573;28;20236;-60
2022/12/02 13:20:40;;;;;;;38.45;22.00;;;;;;;;;;5095184;28;20296;-59
2022/12/02 13:23:07;;;;;;;46.05;21.23;;;;;;;;;;5094693;28;20235;-60
2022/12/02 13:25:35;;;;;;;37.78;22.52;;;;;;;;;;5094733;28;20193;-59
2022/12/02 13:28:03;;;;;;;42.38;21.13;;;;;;;;;;5094573;28;20195;-59
2022/12/02 13:30:30;;;;;;;39.30;20.83;;;;;;;;;;5094341;28;20189;-59
2022/12/02 13:32:58;;;;;;;47.28;20.58;;;;;;;;;;5094618;28;20640;-59
2022/12/02 13:35:25;;;;;;;40.22;21.92;;;;;;;;;;5094222;28;20284;-60
2022/12/02 13:37:52;;;;;;;37.90;21.33;;;;;;;;;;5094534;28;20279;-59
2022/12/02 13:40:20;;;;;;;39.88;20.27;;;;;;;;;;5094057;28;20288;-59
2022/12/02 13:42:47;;;;;;;38.17;20.52;;;;;;;;;;5094516;28;20247;-60
2022/12/02 13:45:14;;;;;;;41.47;20.80;;;;;;;;;;5094601;28;20218;-60
2022/12/02 13:47:41;;;;;;;41.80;21.30;;;;;;;;;;5094345;28;20221;-60
2022/12/02 13:50:11;;;;;;;37.22;20.02;;;;;;;;;;5094025;28;20257;-60
2022/12/02 13:52:38;;;;;;;40.00;20.55;;;;;;;;;;5094666;28;20195;-59
2022/12/02 13:55:05;;;;;;;38.95;21.10;;;;;;;;;;5094439;28;20190;-59
2022/12/02 13:57:32;;;;;;;36.58;20.60;;;;;;;;;;5094526;28;20273;-59
2022/12/02 13:59:59;;;;;;;35.60;20.38;;;;;;;;;;5094556;28;20187;-60
2022/12/02 14:02:26;;;;;;;38.78;19.17;;;;;;;;;;5094623;28;20720;-60
2022/12/02 14:04:53;;;;;;;40.78;22.23;;;;;;;;;;5094617;28;20195;-60
2022/12/02 14:07:21;;;;;;;43.58;23.90;;;;;;;;;;5094118;28;20687;-59
2022/12/02 14:09:48;;;;;;;41.40;24.58;;;;;;;;;;5094029;28;20192;-60
2022/12/02 14:12:16;;;;;;;43.20;22.75;;;;;;;;;;5094209;28;20277;-60
2022/12/02 14:14:43;;;;;;;38.70;22.52;;;;;;;;;;5093775;28;20234;-60
2022/12/02 14:17:09;;;;;;;37.95;22.33;;;;;;;;;;5094167;28;20266;-60
2022/12/02 14:19:36;;;;;;;41.53;23.30;;;;;;;;;;5093903;28;20235;-60
2022/12/02 14:22:03;;;;;;;39.38;22.83;;;;;;;;;;5093922;28;20227;-60
2022/12/02 14:24:32;;;;;;;38.97;22.83;;;;;;;;;;5093570;28;20567;-59
2022/12/02 14:26:59;;;;;;;43.53;24.13;;;;;;;;;;5093675;28;20308;-60